sensor_id;sensor_type;location;lat;lon;timestamp;temperature;humidity
24164;DHT22;12319;49.204;8.116;2023-03-14T00:01:51;11.40;99.90
24164;DHT22;12319;49.204;8.116;2023-03-14T00:04:16;11.30;99.90
24164;DHT22;12319;49.204;8.116;2023-03-14T00:06:42;11.30;99.90
24164;DHT22;12319;49.204;8.116;2023-03-14T00:09:07;11.40;99.90
24164;DHT22;12319;49.204;8.116;2023-03-14T00:11:33;11.40;99.90
24164;DHT22;12319;49.204;8.116;2023-03-14T00:13:59;11.40;99.90
24164;DHT22;12319;49.204;8.116;2023-03-14T00:16:25;11.50;99.90
24164;DHT22;12319;49.204;8.116;2023-03-14T00:18:51;11.50;99.90
24164;DHT22;12319;49.204;8.116;2023-03-14T00:21:18;11.50;99.90
24164;DHT22;12319;49.204;8.116;2023-03-14T00:23:43;11.50;99.90
24164;DHT22;12319;49.204;8.116;2023-03-14T00:26:11;11.50;99.90
24164;DHT22;12319;49.204;8.116;2023-03-14T00:28:38;11.60;99.90
24164;DHT22;12319;49.204;8.116;2023-03-14T00:31:08;11.60;99.90
24164;DHT22;12319;49.204;8.116;2023-03-14T00:33:35;11.60;99.90
24164;DHT22;12319;49.204;8.116;2023-03-14T00:36:06;11.80;99.90
24164;DHT22;12319;49.204;8.116;2023-03-14T00:38:34;11.70;99.90
24164;DHT22;12319;49.204;8.116;2023-03-14T00:41:03;11.60;99.90
24164;DHT22;12319;49.204;8.116;2023-03-14T00:43:29;11.70;99.90
24164;DHT22;12319;49.204;8.116;2023-03-14T00:45:55;11.70;99.90
24164;DHT22;12319;49.204;8.116;2023-03-14T00:48:20;11.60;99.90
24164;DHT22;12319;49.204;8.116;2023-03-14T00:50:46;11.60;99.90
24164;DHT22;12319;49.204;8.116;2023-03-14T00:53:12;11.60;99.90
24164;DHT22;12319;49.204;8.116;2023-03-14T00:55:40;11.70;99.90
24164;DHT22;12319;49.204;8.116;2023-03-14T00:58:08;11.70;99.90
24164;DHT22;12319;49.204;8.116;2023-03-14T01:00:34;11.70;99.90
24164;DHT22;12319;49.204;8.116;2023-03-14T01:03:00;11.70;99.90
24164;DHT22;12319;49.204;8.116;2023-03-14T01:05:26;11.70;99.90
24164;DHT22;12319;49.204;8.116;2023-03-14T01:07:52;11.70;99.90
24164;DHT22;12319;49.204;8.116;2023-03-14T01:10:18;12.20;99.90
24164;DHT22;12319;49.204;8.116;2023-03-14T01:12:43;11.70;99.90
24164;DHT22;12319;49.204;8.116;2023-03-14T01:15:09;11.70;99.90
24164;DHT22;12319;49.204;8.116;2023-03-14T01:17:35;11.70;99.90
24164;DHT22;12319;49.204;8.116;2023-03-14T01:20:03;11.70;99.90
24164;DHT22;12319;49.204;8.116;2023-03-14T01:22:30;11.70;99.90
24164;DHT22;12319;49.204;8.116;2023-03-14T01:24:55;11.70;99.90
24164;DHT22;12319;49.204;8.116;2023-03-14T01:27:21;11.70;99.90
24164;DHT22;12319;49.204;8.116;2023-03-14T01:29:46;11.70;99.90
24164;DHT22;12319;49.204;8.116;2023-03-14T01:32:12;11.70;99.90
24164;DHT22;12319;49.204;8.116;2023-03-14T01:34:38;11.70;99.90
24164;DHT22;12319;49.204;8.116;2023-03-14T01:37:04;11.70;99.90
24164;DHT22;12319;49.204;8.116;2023-03-14T01:39:29;11.60;99.90
24164;DHT22;12319;49.204;8.116;2023-03-14T01:41:55;11.70;99.90
24164;DHT22;12319;49.204;8.116;2023-03-14T01:44:21;11.70;99.90
24164;DHT22;12319;49.204;8.116;2023-03-14T01:46:46;11.70;99.90
24164;DHT22;12319;49.204;8.116;2023-03-14T01:49:30;11.60;99.90
24164;DHT22;12319;49.204;8.116;2023-03-14T01:52:12;11.60;99.90
24164;DHT22;12319;49.204;8.116;2023-03-14T01:54:46;11.60;99.90
24164;DHT22;12319;49.204;8.116;2023-03-14T01:57:24;11.60;99.90
24164;DHT22;12319;49.204;8.116;2023-03-14T02:00:13;11.60;99.90
24164;DHT22;12319;49.204;8.116;2023-03-14T02:02:42;11.50;99.90
24164;DHT22;12319;49.204;8.116;2023-03-14T02:05:09;11.50;99.90
24164;DHT22;12319;49.204;8.116;2023-03-14T02:07:40;11.50;99.90
24164;DHT22;12319;49.204;8.116;2023-03-14T02:10:09;11.40;99.90
24164;DHT22;12319;49.204;8.116;2023-03-14T02:12:36;11.40;99.90
24164;DHT22;12319;49.204;8.116;2023-03-14T02:15:03;11.40;99.90
24164;DHT22;12319;49.204;8.116;2023-03-14T02:17:28;11.40;99.90
24164;DHT22;12319;49.204;8.116;2023-03-14T02:22:25;11.40;99.90
24164;DHT22;12319;49.204;8.116;2023-03-14T02:27:23;11.40;99.90
24164;DHT22;12319;49.204;8.116;2023-03-14T02:29:52;11.40;99.90
24164;DHT22;12319;49.204;8.116;2023-03-14T02:32:20;11.30;99.90
24164;DHT22;12319;49.204;8.116;2023-03-14T02:34:49;11.30;99.90
24164;DHT22;12319;49.204;8.116;2023-03-14T02:37:19;11.30;99.90
24164;DHT22;12319;49.204;8.116;2023-03-14T02:39:46;11.30;99.90
24164;DHT22;12319;49.204;8.116;2023-03-14T02:42:14;11.30;99.90
24164;DHT22;12319;49.204;8.116;2023-03-14T02:47:34;11.30;99.90
24164;DHT22;12319;49.204;8.116;2023-03-14T02:50:08;11.30;99.90
24164;DHT22;12319;49.204;8.116;2023-03-14T02:52:34;11.20;99.90
24164;DHT22;12319;49.204;8.116;2023-03-14T02:55:00;11.20;99.90
24164;DHT22;12319;49.204;8.116;2023-03-14T02:57:26;11.20;99.90
24164;DHT22;12319;49.204;8.116;2023-03-14T02:59:51;11.20;99.90
24164;DHT22;12319;49.204;8.116;2023-03-14T03:02:17;11.20;99.90
24164;DHT22;12319;49.204;8.116;2023-03-14T03:04:43;11.20;99.90
24164;DHT22;12319;49.204;8.116;2023-03-14T03:07:09;11.20;99.90
24164;DHT22;12319;49.204;8.116;2023-03-14T03:09:34;11.30;99.90
24164;DHT22;12319;49.204;8.116;2023-03-14T03:12:00;11.30;99.90
24164;DHT22;12319;49.204;8.116;2023-03-14T03:14:25;11.30;99.90
24164;DHT22;12319;49.204;8.116;2023-03-14T03:16:51;11.30;99.90
24164;DHT22;12319;49.204;8.116;2023-03-14T03:19:16;11.30;99.90
24164;DHT22;12319;49.204;8.116;2023-03-14T03:21:43;11.40;99.90
24164;DHT22;12319;49.204;8.116;2023-03-14T03:24:09;11.40;99.90
24164;DHT22;12319;49.204;8.116;2023-03-14T03:26:35;11.30;99.90
24164;DHT22;12319;49.204;8.116;2023-03-14T03:29:01;11.40;99.90
24164;DHT22;12319;49.204;8.116;2023-03-14T03:31:27;11.30;99.90
24164;DHT22;12319;49.204;8.116;2023-03-14T03:33:52;11.30;99.90
24164;DHT22;12319;49.204;8.116;2023-03-14T03:36:25;11.40;99.90
24164;DHT22;12319;49.204;8.116;2023-03-14T03:38:51;11.30;99.90
24164;DHT22;12319;49.204;8.116;2023-03-14T03:41:17;11.30;99.90
24164;DHT22;12319;49.204;8.116;2023-03-14T03:43:42;11.30;99.90
24164;DHT22;12319;49.204;8.116;2023-03-14T03:46:08;11.30;99.90
24164;DHT22;12319;49.204;8.116;2023-03-14T03:48:34;11.30;99.90
24164;DHT22;12319;49.204;8.116;2023-03-14T03:51:00;11.30;99.90
24164;DHT22;12319;49.204;8.116;2023-03-14T03:53:26;11.20;99.90
24164;DHT22;12319;49.204;8.116;2023-03-14T03:55:51;11.20;99.90
24164;DHT22;12319;49.204;8.116;2023-03-14T03:58:17;11.20;99.90
24164;DHT22;12319;49.204;8.116;2023-03-14T04:00:42;11.10;99.90
24164;DHT22;12319;49.204;8.116;2023-03-14T04:03:08;11.10;99.90
24164;DHT22;12319;49.204;8.116;2023-03-14T04:05:35;11.10;99.90
24164;DHT22;12319;49.204;8.116;2023-03-14T04:08:01;11.00;99.90
24164;DHT22;12319;49.204;8.116;2023-03-14T04:10:27;11.00;99.90
24164;DHT22;12319;49.204;8.116;2023-03-14T04:12:53;11.00;99.90
24164;DHT22;12319;49.204;8.116;2023-03-14T04:15:18;11.00;99.90
24164;DHT22;12319;49.204;8.116;2023-03-14T04:17:44;11.00;99.90
24164;DHT22;12319;49.204;8.116;2023-03-14T04:20:10;11.00;99.90
24164;DHT22;12319;49.204;8.116;2023-03-14T04:22:39;11.00;99.90
24164;DHT22;12319;49.204;8.116;2023-03-14T04:25:05;11.00;99.90
24164;DHT22;12319;49.204;8.116;2023-03-14T04:27:31;11.00;99.90
24164;DHT22;12319;49.204;8.116;2023-03-14T04:29:57;11.00;99.90
24164;DHT22;12319;49.204;8.116;2023-03-14T04:32:22;11.00;99.90
24164;DHT22;12319;49.204;8.116;2023-03-14T04:34:48;11.00;99.90
24164;DHT22;12319;49.204;8.116;2023-03-14T04:37:14;10.90;99.90
24164;DHT22;12319;49.204;8.116;2023-03-14T04:39:39;11.30;99.90
24164;DHT22;12319;49.204;8.116;2023-03-14T04:42:05;10.90;99.90
24164;DHT22;12319;49.204;8.116;2023-03-14T04:44:31;10.90;99.90
24164;DHT22;12319;49.204;8.116;2023-03-14T04:46:56;10.90;99.90
24164;DHT22;12319;49.204;8.116;2023-03-14T04:49:22;10.90;99.90
24164;DHT22;12319;49.204;8.116;2023-03-14T04:51:48;10.90;99.90
24164;DHT22;12319;49.204;8.116;2023-03-14T04:54:13;10.90;99.90
24164;DHT22;12319;49.204;8.116;2023-03-14T04:56:39;10.80;99.90
24164;DHT22;12319;49.204;8.116;2023-03-14T04:59:05;10.90;99.90
24164;DHT22;12319;49.204;8.116;2023-03-14T05:01:30;10.80;99.90
24164;DHT22;12319;49.204;8.116;2023-03-14T05:03:56;10.80;99.90
24164;DHT22;12319;49.204;8.116;2023-03-14T05:06:21;10.80;99.90
24164;DHT22;12319;49.204;8.116;2023-03-14T05:08:47;10.80;99.90
24164;DHT22;12319;49.204;8.116;2023-03-14T05:11:12;10.70;99.90
24164;DHT22;12319;49.204;8.116;2023-03-14T05:13:38;10.70;99.90
24164;DHT22;12319;49.204;8.116;2023-03-14T05:16:06;10.60;99.90
24164;DHT22;12319;49.204;8.116;2023-03-14T05:18:32;10.60;99.90
24164;DHT22;12319;49.204;8.116;2023-03-14T05:20:58;10.60;99.90
24164;DHT22;12319;49.204;8.116;2023-03-14T05:23:23;10.60;99.90
24164;DHT22;12319;49.204;8.116;2023-03-14T05:25:49;10.60;99.90
24164;DHT22;12319;49.204;8.116;2023-03-14T05:28:14;10.60;99.90
24164;DHT22;12319;49.204;8.116;2023-03-14T05:30:40;10.60;99.90
24164;DHT22;12319;49.204;8.116;2023-03-14T05:33:05;10.60;99.90
24164;DHT22;12319;49.204;8.116;2023-03-14T05:35:31;10.60;99.90
24164;DHT22;12319;49.204;8.116;2023-03-14T05:37:57;10.60;99.90
24164;DHT22;12319;49.204;8.116;2023-03-14T05:40:22;10.50;99.90
24164;DHT22;12319;49.204;8.116;2023-03-14T05:42:48;10.50;99.90
24164;DHT22;12319;49.204;8.116;2023-03-14T05:45:13;10.50;99.90
24164;DHT22;12319;49.204;8.116;2023-03-14T05:47:39;10.50;99.90
24164;DHT22;12319;49.204;8.116;2023-03-14T05:50:04;10.50;99.90
24164;DHT22;12319;49.204;8.116;2023-03-14T05:52:30;10.50;99.90
24164;DHT22;12319;49.204;8.116;2023-03-14T05:54:56;10.50;99.90
24164;DHT22;12319;49.204;8.116;2023-03-14T05:57:21;10.50;99.90
24164;DHT22;12319;49.204;8.116;2023-03-14T05:59:47;10.60;99.90
24164;DHT22;12319;49.204;8.116;2023-03-14T06:02:12;10.60;99.90
24164;DHT22;12319;49.204;8.116;2023-03-14T06:04:38;10.70;99.90
24164;DHT22;12319;49.204;8.116;2023-03-14T06:07:03;10.70;99.90
24164;DHT22;12319;49.204;8.116;2023-03-14T06:09:29;10.60;99.90
24164;DHT22;12319;49.204;8.116;2023-03-14T06:11:55;10.80;99.90
24164;DHT22;12319;49.204;8.116;2023-03-14T06:14:20;10.90;99.90
24164;DHT22;12319;49.204;8.116;2023-03-14T06:16:46;10.90;99.90
24164;DHT22;12319;49.204;8.116;2023-03-14T06:19:14;10.90;99.90
24164;DHT22;12319;49.204;8.116;2023-03-14T06:21:40;11.00;99.90
24164;DHT22;12319;49.204;8.116;2023-03-14T06:24:05;11.00;99.90
24164;DHT22;12319;49.204;8.116;2023-03-14T06:26:31;11.10;99.90
24164;DHT22;12319;49.204;8.116;2023-03-14T06:28:57;11.30;99.90
24164;DHT22;12319;49.204;8.116;2023-03-14T06:31:24;11.40;99.90
24164;DHT22;12319;49.204;8.116;2023-03-14T06:33:50;11.60;99.90
24164;DHT22;12319;49.204;8.116;2023-03-14T06:36:15;11.70;99.90
24164;DHT22;12319;49.204;8.116;2023-03-14T06:38:41;12.00;99.90
24164;DHT22;12319;49.204;8.116;2023-03-14T06:41:07;12.10;99.60
24164;DHT22;12319;49.204;8.116;2023-03-14T06:43:33;12.20;99.50
24164;DHT22;12319;49.204;8.116;2023-03-14T06:45:59;12.20;98.80
24164;DHT22;12319;49.204;8.116;2023-03-14T06:48:24;12.20;98.80
24164;DHT22;12319;49.204;8.116;2023-03-14T06:50:50;12.20;98.90
24164;DHT22;12319;49.204;8.116;2023-03-14T06:53:16;12.20;99.30
24164;DHT22;12319;49.204;8.116;2023-03-14T06:55:41;12.20;99.50
24164;DHT22;12319;49.204;8.116;2023-03-14T06:58:08;12.20;99.30
24164;DHT22;12319;49.204;8.116;2023-03-14T07:00:34;12.20;98.70
24164;DHT22;12319;49.204;8.116;2023-03-14T07:03:00;12.20;99.00
24164;DHT22;12319;49.204;8.116;2023-03-14T07:05:25;12.20;98.80
24164;DHT22;12319;49.204;8.116;2023-03-14T07:07:51;12.10;98.10
24164;DHT22;12319;49.204;8.116;2023-03-14T07:10:17;12.10;98.70
24164;DHT22;12319;49.204;8.116;2023-03-14T07:12:42;12.10;98.90
24164;DHT22;12319;49.204;8.116;2023-03-14T07:15:08;12.10;99.10
24164;DHT22;12319;49.204;8.116;2023-03-14T07:17:34;12.10;99.10
24164;DHT22;12319;49.204;8.116;2023-03-14T07:19:59;12.00;99.00
24164;DHT22;12319;49.204;8.116;2023-03-14T07:22:26;12.10;98.80
24164;DHT22;12319;49.204;8.116;2023-03-14T07:24:51;12.00;98.80
24164;DHT22;12319;49.204;8.116;2023-03-14T07:27:17;12.00;99.00
24164;DHT22;12319;49.204;8.116;2023-03-14T07:29:42;12.00;99.00
24164;DHT22;12319;49.204;8.116;2023-03-14T07:32:08;12.00;99.00
24164;DHT22;12319;49.204;8.116;2023-03-14T07:34:34;11.90;99.00
24164;DHT22;12319;49.204;8.116;2023-03-14T07:37:00;12.00;99.00
24164;DHT22;12319;49.204;8.116;2023-03-14T07:39:25;12.00;99.10
24164;DHT22;12319;49.204;8.116;2023-03-14T07:41:51;12.00;99.00
24164;DHT22;12319;49.204;8.116;2023-03-14T07:44:17;12.10;99.20
24164;DHT22;12319;49.204;8.116;2023-03-14T07:46:42;12.00;98.90
24164;DHT22;12319;49.204;8.116;2023-03-14T07:49:08;12.10;98.80
24164;DHT22;12319;49.204;8.116;2023-03-14T07:51:33;12.10;99.00
24164;DHT22;12319;49.204;8.116;2023-03-14T07:53:59;12.20;99.20
24164;DHT22;12319;49.204;8.116;2023-03-14T07:56:24;12.10;98.90
24164;DHT22;12319;49.204;8.116;2023-03-14T07:58:50;12.10;98.80
24164;DHT22;12319;49.204;8.116;2023-03-14T08:01:15;12.10;98.80
24164;DHT22;12319;49.204;8.116;2023-03-14T08:03:41;12.10;98.20
24164;DHT22;12319;49.204;8.116;2023-03-14T08:06:07;12.10;98.20
24164;DHT22;12319;49.204;8.116;2023-03-14T08:08:32;12.10;98.10
24164;DHT22;12319;49.204;8.116;2023-03-14T08:11:05;12.20;98.20
24164;DHT22;12319;49.204;8.116;2023-03-14T08:13:34;12.30;98.20
24164;DHT22;12319;49.204;8.116;2023-03-14T08:15:59;12.40;98.20
24164;DHT22;12319;49.204;8.116;2023-03-14T08:18:25;12.50;98.00
24164;DHT22;12319;49.204;8.116;2023-03-14T08:20:51;12.50;97.80
24164;DHT22;12319;49.204;8.116;2023-03-14T08:23:16;12.50;97.80
24164;DHT22;12319;49.204;8.116;2023-03-14T08:25:42;12.60;97.70
24164;DHT22;12319;49.204;8.116;2023-03-14T08:28:08;12.60;97.50
24164;DHT22;12319;49.204;8.116;2023-03-14T08:30:34;12.70;97.60
24164;DHT22;12319;49.204;8.116;2023-03-14T08:33:00;12.70;97.50
24164;DHT22;12319;49.204;8.116;2023-03-14T08:35:26;12.80;97.50
24164;DHT22;12319;49.204;8.116;2023-03-14T08:37:51;12.80;97.50
24164;DHT22;12319;49.204;8.116;2023-03-14T08:40:18;12.90;97.70
24164;DHT22;12319;49.204;8.116;2023-03-14T08:42:44;13.00;97.60
24164;DHT22;12319;49.204;8.116;2023-03-14T08:45:12;13.10;97.80
24164;DHT22;12319;49.204;8.116;2023-03-14T08:47:38;13.00;98.10
24164;DHT22;12319;49.204;8.116;2023-03-14T08:50:05;13.00;98.30
24164;DHT22;12319;49.204;8.116;2023-03-14T08:52:31;13.00;98.50
24164;DHT22;12319;49.204;8.116;2023-03-14T08:54:57;12.90;98.60
24164;DHT22;12319;49.204;8.116;2023-03-14T08:57:23;12.90;98.60
24164;DHT22;12319;49.204;8.116;2023-03-14T08:59:53;12.90;98.70
24164;DHT22;12319;49.204;8.116;2023-03-14T09:02:19;12.90;98.80
24164;DHT22;12319;49.204;8.116;2023-03-14T09:04:45;13.00;98.90
24164;DHT22;12319;49.204;8.116;2023-03-14T09:07:10;13.30;98.40
24164;DHT22;12319;49.204;8.116;2023-03-14T09:09:36;13.40;98.40
24164;DHT22;12319;49.204;8.116;2023-03-14T09:12:02;13.40;97.90
24164;DHT22;12319;49.204;8.116;2023-03-14T09:14:27;13.50;98.10
24164;DHT22;12319;49.204;8.116;2023-03-14T09:16:54;13.50;98.10
24164;DHT22;12319;49.204;8.116;2023-03-14T09:19:20;13.40;97.80
24164;DHT22;12319;49.204;8.116;2023-03-14T09:21:45;13.40;98.00
24164;DHT22;12319;49.204;8.116;2023-03-14T09:24:11;13.40;98.10
24164;DHT22;12319;49.204;8.116;2023-03-14T09:26:36;13.40;98.30
24164;DHT22;12319;49.204;8.116;2023-03-14T09:29:03;13.30;98.40
24164;DHT22;12319;49.204;8.116;2023-03-14T09:31:28;13.30;98.60
24164;DHT22;12319;49.204;8.116;2023-03-14T09:33:55;13.30;98.40
24164;DHT22;12319;49.204;8.116;2023-03-14T09:36:21;13.30;98.60
24164;DHT22;12319;49.204;8.116;2023-03-14T09:38:47;13.30;98.60
24164;DHT22;12319;49.204;8.116;2023-03-14T09:41:26;13.30;98.60
24164;DHT22;12319;49.204;8.116;2023-03-14T09:44:03;13.40;98.70
24164;DHT22;12319;49.204;8.116;2023-03-14T09:46:31;13.50;98.50
24164;DHT22;12319;49.204;8.116;2023-03-14T09:48:57;13.50;98.20
24164;DHT22;12319;49.204;8.116;2023-03-14T09:51:23;13.40;98.30
24164;DHT22;12319;49.204;8.116;2023-03-14T09:53:50;13.50;98.70
24164;DHT22;12319;49.204;8.116;2023-03-14T09:56:27;13.60;98.70
24164;DHT22;12319;49.204;8.116;2023-03-14T09:58:58;13.80;98.50
24164;DHT22;12319;49.204;8.116;2023-03-14T10:01:29;13.90;98.10
24164;DHT22;12319;49.204;8.116;2023-03-14T10:03:58;14.00;98.10
24164;DHT22;12319;49.204;8.116;2023-03-14T10:06:30;14.00;98.20
24164;DHT22;12319;49.204;8.116;2023-03-14T10:08:56;14.00;98.50
24164;DHT22;12319;49.204;8.116;2023-03-14T10:11:24;14.00;98.30
24164;DHT22;12319;49.204;8.116;2023-03-14T10:14:10;14.00;98.30
24164;DHT22;12319;49.204;8.116;2023-03-14T10:16:45;13.90;98.30
24164;DHT22;12319;49.204;8.116;2023-03-14T10:19:13;13.80;98.30
24164;DHT22;12319;49.204;8.116;2023-03-14T10:21:43;13.70;98.40
24164;DHT22;12319;49.204;8.116;2023-03-14T10:24:27;13.70;98.70
24164;DHT22;12319;49.204;8.116;2023-03-14T10:26:55;13.80;98.70
24164;DHT22;12319;49.204;8.116;2023-03-14T10:29:23;13.80;98.80
24164;DHT22;12319;49.204;8.116;2023-03-14T10:32:16;13.80;99.00
24164;DHT22;12319;49.204;8.116;2023-03-14T10:34:44;13.90;98.90
24164;DHT22;12319;49.204;8.116;2023-03-14T10:37:24;13.70;99.10
24164;DHT22;12319;49.204;8.116;2023-03-14T10:40:13;13.60;99.30
24164;DHT22;12319;49.204;8.116;2023-03-14T10:42:41;13.40;99.60
24164;DHT22;12319;49.204;8.116;2023-03-14T10:45:31;13.30;99.90
24164;DHT22;12319;49.204;8.116;2023-03-14T10:47:59;13.20;99.90
24164;DHT22;12319;49.204;8.116;2023-03-14T10:50:31;13.10;99.90
24164;DHT22;12319;49.204;8.116;2023-03-14T10:52:57;13.00;99.90
24164;DHT22;12319;49.204;8.116;2023-03-14T10:55:26;13.00;99.90
24164;DHT22;12319;49.204;8.116;2023-03-14T10:57:52;12.90;99.90
24164;DHT22;12319;49.204;8.116;2023-03-14T11:00:20;12.80;99.90
24164;DHT22;12319;49.204;8.116;2023-03-14T11:03:08;12.70;99.90
24164;DHT22;12319;49.204;8.116;2023-03-14T11:05:57;12.70;99.90
24164;DHT22;12319;49.204;8.116;2023-03-14T11:08:37;12.70;99.90
24164;DHT22;12319;49.204;8.116;2023-03-14T11:16:41;12.60;99.20
24164;DHT22;12319;49.204;8.116;2023-03-14T11:32:46;12.00;98.10
24164;DHT22;12319;49.204;8.116;2023-03-14T11:37:52;12.10;98.20
24164;DHT22;12319;49.204;8.116;2023-03-14T11:40:23;12.00;98.10
24164;DHT22;12319;49.204;8.116;2023-03-14T11:45:36;11.90;97.70
24164;DHT22;12319;49.204;8.116;2023-03-14T11:50:52;11.70;97.80
24164;DHT22;12319;49.204;8.116;2023-03-14T11:53:34;11.70;97.70
24164;DHT22;12319;49.204;8.116;2023-03-14T11:56:01;11.60;97.50
24164;DHT22;12319;49.204;8.116;2023-03-14T11:58:29;11.50;97.40
24164;DHT22;12319;49.204;8.116;2023-03-14T12:00:57;11.50;97.50
24164;DHT22;12319;49.204;8.116;2023-03-14T12:03:35;11.40;97.40
24164;DHT22;12319;49.204;8.116;2023-03-14T12:06:13;11.30;97.30
24164;DHT22;12319;49.204;8.116;2023-03-14T12:08:50;11.20;97.00
24164;DHT22;12319;49.204;8.116;2023-03-14T12:16:46;11.00;96.50
24164;DHT22;12319;49.204;8.116;2023-03-14T12:21:55;11.10;96.10
24164;DHT22;12319;49.204;8.116;2023-03-14T12:24:26;11.20;95.50
24164;DHT22;12319;49.204;8.116;2023-03-14T12:26:57;11.20;95.40
24164;DHT22;12319;49.204;8.116;2023-03-14T12:29:23;11.30;94.90
24164;DHT22;12319;49.204;8.116;2023-03-14T12:32:06;11.40;94.70
24164;DHT22;12319;49.204;8.116;2023-03-14T12:34:51;11.60;94.30
24164;DHT22;12319;49.204;8.116;2023-03-14T12:37:33;11.70;93.40
24164;DHT22;12319;49.204;8.116;2023-03-14T12:40:17;12.00;93.30
24164;DHT22;12319;49.204;8.116;2023-03-14T12:42:56;12.10;93.50
24164;DHT22;12319;49.204;8.116;2023-03-14T12:45:29;12.20;92.70
24164;DHT22;12319;49.204;8.116;2023-03-14T12:48:13;11.80;92.30
24164;DHT22;12319;49.204;8.116;2023-03-14T12:50:46;12.10;91.30
24164;DHT22;12319;49.204;8.116;2023-03-14T13:01:19;12.30;86.00
24164;DHT22;12319;49.204;8.116;2023-03-14T13:03:48;12.40;85.90
24164;DHT22;12319;49.204;8.116;2023-03-14T13:06:49;12.40;80.20
24164;DHT22;12319;49.204;8.116;2023-03-14T13:11:55;12.50;79.10
24164;DHT22;12319;49.204;8.116;2023-03-14T13:14:22;12.50;81.30
24164;DHT22;12319;49.204;8.116;2023-03-14T13:16:49;12.50;79.80
24164;DHT22;12319;49.204;8.116;2023-03-14T13:19:19;12.60;78.60
24164;DHT22;12319;49.204;8.116;2023-03-14T13:21:45;12.70;76.80
24164;DHT22;12319;49.204;8.116;2023-03-14T13:24:26;12.80;76.90
24164;DHT22;12319;49.204;8.116;2023-03-14T13:26:54;13.10;74.00
24164;DHT22;12319;49.204;8.116;2023-03-14T13:29:22;13.50;72.60
24164;DHT22;12319;49.204;8.116;2023-03-14T13:31:50;13.90;69.20
24164;DHT22;12319;49.204;8.116;2023-03-14T13:34:17;14.00;67.00
24164;DHT22;12319;49.204;8.116;2023-03-14T13:36:42;13.90;63.60
24164;DHT22;12319;49.204;8.116;2023-03-14T13:39:14;13.80;66.70
24164;DHT22;12319;49.204;8.116;2023-03-14T13:41:42;13.60;65.40
24164;DHT22;12319;49.204;8.116;2023-03-14T13:44:16;13.40;63.90
24164;DHT22;12319;49.204;8.116;2023-03-14T13:46:42;13.20;64.60
24164;DHT22;12319;49.204;8.116;2023-03-14T13:49:25;13.10;65.80
24164;DHT22;12319;49.204;8.116;2023-03-14T13:51:51;13.10;65.20
24164;DHT22;12319;49.204;8.116;2023-03-14T13:54:19;13.10;64.60
24164;DHT22;12319;49.204;8.116;2023-03-14T13:56:46;13.40;64.90
24164;DHT22;12319;49.204;8.116;2023-03-14T13:59:29;13.80;64.10
24164;DHT22;12319;49.204;8.116;2023-03-14T14:01:58;14.30;64.90
24164;DHT22;12319;49.204;8.116;2023-03-14T14:04:25;14.50;64.30
24164;DHT22;12319;49.204;8.116;2023-03-14T14:07:01;14.70;63.70
24164;DHT22;12319;49.204;8.116;2023-03-14T14:09:37;14.60;63.70
24164;DHT22;12319;49.204;8.116;2023-03-14T14:12:17;14.50;61.90
24164;DHT22;12319;49.204;8.116;2023-03-14T14:15:09;14.30;59.40
24164;DHT22;12319;49.204;8.116;2023-03-14T14:17:41;14.00;58.50
24164;DHT22;12319;49.204;8.116;2023-03-14T14:20:18;13.70;58.90
24164;DHT22;12319;49.204;8.116;2023-03-14T14:22:45;13.50;59.50
24164;DHT22;12319;49.204;8.116;2023-03-14T14:25:13;13.40;61.70
24164;DHT22;12319;49.204;8.116;2023-03-14T14:27:43;13.30;60.20
24164;DHT22;12319;49.204;8.116;2023-03-14T14:32:46;13.20;61.50
24164;DHT22;12319;49.204;8.116;2023-03-14T14:35:30;13.30;62.00
24164;DHT22;12319;49.204;8.116;2023-03-14T14:37:56;13.40;62.40
24164;DHT22;12319;49.204;8.116;2023-03-14T14:40:25;13.60;60.50
24164;DHT22;12319;49.204;8.116;2023-03-14T14:42:51;13.60;59.30
24164;DHT22;12319;49.204;8.116;2023-03-14T14:48:09;13.70;60.80
24164;DHT22;12319;49.204;8.116;2023-03-14T14:53:28;13.70;60.50
24164;DHT22;12319;49.204;8.116;2023-03-14T14:55:58;13.80;58.80
24164;DHT22;12319;49.204;8.116;2023-03-14T14:58:28;13.80;59.40
24164;DHT22;12319;49.204;8.116;2023-03-14T15:01:18;13.70;61.90
24164;DHT22;12319;49.204;8.116;2023-03-14T15:03:47;13.60;59.20
24164;DHT22;12319;49.204;8.116;2023-03-14T15:06:15;13.50;59.90
24164;DHT22;12319;49.204;8.116;2023-03-14T15:08:46;13.40;60.40
24164;DHT22;12319;49.204;8.116;2023-03-14T15:11:24;13.30;60.50
24164;DHT22;12319;49.204;8.116;2023-03-14T15:13:53;13.20;60.40
24164;DHT22;12319;49.204;8.116;2023-03-14T15:16:27;13.20;59.20
24164;DHT22;12319;49.204;8.116;2023-03-14T15:18:55;13.10;59.70
24164;DHT22;12319;49.204;8.116;2023-03-14T15:21:22;13.00;59.20
24164;DHT22;12319;49.204;8.116;2023-03-14T15:23:47;12.90;60.20
24164;DHT22;12319;49.204;8.116;2023-03-14T15:26:16;12.90;60.20
24164;DHT22;12319;49.204;8.116;2023-03-14T15:28:42;12.70;59.70
24164;DHT22;12319;49.204;8.116;2023-03-14T15:31:10;12.60;59.60
24164;DHT22;12319;49.204;8.116;2023-03-14T15:33:36;12.40;60.00
24164;DHT22;12319;49.204;8.116;2023-03-14T15:36:03;12.30;60.00
24164;DHT22;12319;49.204;8.116;2023-03-14T15:38:29;12.20;60.60
24164;DHT22;12319;49.204;8.116;2023-03-14T15:40:55;12.10;61.00
24164;DHT22;12319;49.204;8.116;2023-03-14T15:43:20;12.00;60.80
24164;DHT22;12319;49.204;8.116;2023-03-14T15:45:46;11.90;61.70
24164;DHT22;12319;49.204;8.116;2023-03-14T15:48:16;11.90;61.30
24164;DHT22;12319;49.204;8.116;2023-03-14T15:50:43;11.80;61.30
24164;DHT22;12319;49.204;8.116;2023-03-14T15:53:09;11.70;61.80
24164;DHT22;12319;49.204;8.116;2023-03-14T15:55:35;11.70;62.00
24164;DHT22;12319;49.204;8.116;2023-03-14T15:58:00;11.70;61.60
24164;DHT22;12319;49.204;8.116;2023-03-14T16:00:28;11.60;61.50
24164;DHT22;12319;49.204;8.116;2023-03-14T16:02:54;11.70;61.70
24164;DHT22;12319;49.204;8.116;2023-03-14T16:05:19;11.60;62.00
24164;DHT22;12319;49.204;8.116;2023-03-14T16:07:45;11.60;60.90
24164;DHT22;12319;49.204;8.116;2023-03-14T16:10:12;11.60;61.50
24164;DHT22;12319;49.204;8.116;2023-03-14T16:12:39;11.50;61.90
24164;DHT22;12319;49.204;8.116;2023-03-14T16:15:05;11.50;61.00
24164;DHT22;12319;49.204;8.116;2023-03-14T16:17:31;11.40;61.10
24164;DHT22;12319;49.204;8.116;2023-03-14T16:19:57;11.40;61.60
24164;DHT22;12319;49.204;8.116;2023-03-14T16:22:23;11.30;61.30
24164;DHT22;12319;49.204;8.116;2023-03-14T16:24:48;11.30;61.90
24164;DHT22;12319;49.204;8.116;2023-03-14T16:27:14;11.20;61.80
24164;DHT22;12319;49.204;8.116;2023-03-14T16:29:41;11.10;61.90
24164;DHT22;12319;49.204;8.116;2023-03-14T16:32:06;11.20;62.80
24164;DHT22;12319;49.204;8.116;2023-03-14T16:34:32;11.10;62.10
24164;DHT22;12319;49.204;8.116;2023-03-14T16:36:58;11.00;62.20
24164;DHT22;12319;49.204;8.116;2023-03-14T16:39:23;11.00;62.60